Time;durP1;ratioP1;P1;durP2;ratioP2;P2;SDS_P1;SDS_P2;PMS_P1;PMS_P2;Temp;Humidity;BMP_temperature;BMP_pressure;BME280_temperature;BME280_humidity;BME280_pressure;Samples;Min_cycle;Max_cycle;Signal;HPM_P1;HPM_P2
2022/04/14 00:00:36;;;;;;;5.27;2.40;;;17.20;82.70;;;;;;5110210;28;20451;-81
2022/04/14 00:03:04;;;;;;;6.70;2.87;;;17.20;82.20;;;;;;5090647;28;20461;-83
2022/04/14 00:05:33;;;;;;;3.93;2.27;;;17.20;87.30;;;;;;5095230;28;20478;-81
2022/04/14 00:08:01;;;;;;;4.70;2.20;;;17.20;84.70;;;;;;5113382;28;20964;-81
2022/04/14 00:10:31;;;;;;;4.77;2.50;;;17.10;87.20;;;;;;5116351;27;20448;-82
2022/04/14 00:12:59;;;;;;;2.90;1.90;;;17.10;86.30;;;;;;5106067;28;20477;-82
2022/04/14 00:15:28;;;;;;;3.10;2.00;;;17.10;86.60;;;;;;5114863;27;20525;-84
2022/04/14 00:17:56;;;;;;;5.97;2.87;;;17.20;87.10;;;;;;5104206;28;20451;-85
2022/04/14 00:20:24;;;;;;;4.17;2.03;;;17.20;89.40;;;;;;5108250;27;20505;-83
2022/04/14 00:22:53;;;;;;;6.40;2.07;;;17.10;89.50;;;;;;5105983;27;21013;-83
2022/04/14 00:25:21;;;;;;;4.30;2.97;;;17.10;90.00;;;;;;5111735;27;20490;-82
2022/04/14 00:27:50;;;;;;;3.37;2.53;;;17.00;90.60;;;;;;5110055;27;20528;-83
2022/04/14 00:30:18;;;;;;;4.13;2.30;;;17.10;92.00;;;;;;5102163;27;20466;-84
2022/04/14 00:32:47;;;;;;;9.73;2.83;;;17.10;91.80;;;;;;5112895;28;20789;-83
2022/04/14 00:35:15;;;;;;;4.50;2.03;;;17.00;90.70;;;;;;5112665;27;20491;-83
2022/04/14 00:37:43;;;;;;;4.40;2.40;;;16.90;90.60;;;;;;5110613;28;20454;-84
2022/04/14 00:40:13;;;;;;;3.00;1.93;;;16.90;91.30;;;;;;5116912;27;20454;-83
2022/04/14 00:42:41;;;;;;;4.90;2.27;;;16.90;90.90;;;;;;5103318;28;20451;-83
2022/04/14 00:45:11;;;;;;;3.50;2.00;;;16.90;91.60;;;;;;5108247;27;20475;-83
2022/04/14 00:47:39;;;;;;;6.83;4.17;;;16.80;92.40;;;;;;5111116;27;20463;-82
2022/04/14 00:50:08;;;;;;;2.90;2.10;;;16.80;92.40;;;;;;5110052;27;20446;-82
2022/04/14 00:52:43;;;;;;;4.03;2.10;;;16.80;92.20;;;;;;5111156;27;20451;-83
2022/04/14 00:55:11;;;;;;;4.33;2.37;;;16.80;93.00;;;;;;5103996;28;20525;-82
2022/04/14 00:57:39;;;;;;;4.23;3.73;;;16.80;94.50;;;;;;5108368;27;20840;-82
2022/04/14 01:00:10;;;;;;;4.17;2.50;;;16.80;94.60;;;;;;5116207;27;20453;-83
2022/04/14 01:02:44;;;;;;;2.03;1.93;;;16.70;94.30;;;;;;5113646;27;20986;-83
2022/04/14 01:05:12;;;;;;;5.40;3.07;;;16.70;94.10;;;;;;5110707;28;20554;-84
2022/04/14 01:07:44;;;;;;;3.80;2.77;;;16.70;94.00;;;;;;5110614;28;20963;-83
2022/04/14 01:10:13;;;;;;;3.50;2.30;;;16.60;94.90;;;;;;5109354;28;20457;-82
2022/04/14 01:12:41;;;;;;;3.00;2.37;;;16.60;94.40;;;;;;5112227;27;20458;-82
2022/04/14 01:15:13;;;;;;;2.70;2.00;;;16.60;94.20;;;;;;5099849;28;20504;-80
2022/04/14 01:17:42;;;;;;;3.93;2.30;;;16.60;94.70;;;;;;5124020;27;20510;-81
2022/04/14 01:20:13;;;;;;;3.40;2.23;;;16.60;94.40;;;;;;5105961;28;20493;-82
2022/04/14 01:22:46;;;;;;;4.73;1.73;;;16.50;95.30;;;;;;5106882;28;20457;-82
2022/04/14 01:25:16;;;;;;;4.53;2.27;;;16.40;94.90;;;;;;5107536;27;20548;-81
2022/04/14 01:27:44;;;;;;;6.60;2.37;;;16.40;96.70;;;;;;5104209;27;20455;-80
2022/04/14 01:30:12;;;;;;;5.90;2.90;;;16.40;96.70;;;;;;5103065;27;20462;-81
2022/04/14 01:32:40;;;;;;;4.63;2.40;;;16.40;96.90;;;;;;5103823;27;20452;-80
2022/04/14 01:35:09;;;;;;;4.50;2.77;;;16.40;96.80;;;;;;5103743;28;20878;-81
2022/04/14 01:37:37;;;;;;;3.70;1.87;;;16.40;99.90;;;;;;5107976;27;20913;-81
2022/04/14 01:40:07;;;;;;;3.93;1.97;;;16.50;97.80;;;;;;5110614;27;20441;-81
2022/04/14 01:42:37;;;;;;;5.27;2.27;;;16.40;96.50;;;;;;5107847;28;20454;-81
2022/04/14 01:45:07;;;;;;;4.93;3.10;;;16.40;97.10;;;;;;5106049;28;20466;-81
2022/04/14 01:47:39;;;;;;;4.60;2.50;;;16.30;96.40;;;;;;5109935;27;20840;-81
2022/04/14 01:50:09;;;;;;;3.27;2.33;;;16.40;96.50;;;;;;5105966;28;21076;-83
2022/04/14 01:52:38;;;;;;;3.03;2.47;;;16.40;97.40;;;;;;5108538;28;20462;-81
2022/04/14 01:55:07;;;;;;;3.90;2.57;;;16.30;97.50;;;;;;5102999;28;20839;-80
2022/04/14 01:57:37;;;;;;;2.40;2.20;;;16.40;98.00;;;;;;5111603;27;20450;-80
2022/04/14 02:00:08;;;;;;;2.93;2.30;;;16.30;99.20;;;;;;5092871;27;20465;-83
2022/04/14 02:02:37;;;;;;;3.77;2.80;;;16.40;99.00;;;;;;5108137;28;20455;-81
2022/04/14 02:05:06;;;;;;;2.23;2.03;;;16.40;99.10;;;;;;5112999;27;20469;-83
2022/04/14 02:07:34;;;;;;;5.40;2.37;;;16.40;99.00;;;;;;5107212;27;20874;-82
2022/04/14 02:10:03;;;;;;;2.47;2.23;;;16.40;99.50;;;;;;5107199;28;20532;-81
2022/04/14 02:12:33;;;;;;;2.60;2.40;;;16.30;99.00;;;;;;5113956;27;20982;-83
2022/04/14 02:15:03;;;;;;;2.67;2.20;;;16.30;99.20;;;;;;5102161;27;20980;-82
2022/04/14 02:17:31;;;;;;;4.10;2.50;;;16.30;99.20;;;;;;5108823;28;20462;-82
2022/04/14 02:19:59;;;;;;;3.33;2.60;;;16.30;99.70;;;;;;5108266;28;20464;-82
2022/04/14 02:22:28;;;;;;;4.57;4.10;;;16.30;99.90;;;;;;5103233;28;20446;-82
2022/04/14 02:24:56;;;;;;;3.20;2.50;;;16.40;99.90;;;;;;5103578;27;21016;-82
2022/04/14 02:27:25;;;;;;;2.80;2.60;;;16.40;99.90;;;;;;5105596;28;20437;-81
2022/04/14 02:29:53;;;;;;;6.57;3.10;;;16.40;99.90;;;;;;5105108;28;20828;-82
2022/04/14 02:32:22;;;;;;;2.63;2.43;;;16.40;99.90;;;;;;5108515;27;20449;-83
2022/04/14 02:34:51;;;;;;;5.50;2.20;;;16.40;99.90;;;;;;5091452;28;20570;-84
2022/04/14 02:37:19;;;;;;;2.63;2.10;;;16.40;99.90;;;;;;5107108;28;20452;-82
2022/04/14 02:39:47;;;;;;;8.63;2.93;;;16.40;99.90;;;;;;5112436;27;20899;-84
2022/04/14 02:42:15;;;;;;;4.17;2.77;;;16.40;99.90;;;;;;5097511;28;20550;-83
2022/04/14 02:44:43;;;;;;;3.10;2.80;;;16.40;99.90;;;;;;5104925;28;20478;-84
2022/04/14 02:47:12;;;;;;;5.50;2.70;;;16.30;99.90;;;;;;5114090;27;20448;-84
2022/04/14 02:49:41;;;;;;;3.57;2.87;;;16.30;99.90;;;;;;5109790;28;20445;-83
2022/04/14 02:52:09;;;;;;;4.03;2.67;;;16.30;99.90;;;;;;5107046;28;20463;-84
2022/04/14 02:54:38;;;;;;;5.03;2.87;;;16.30;99.90;;;;;;5109322;28;20488;-84
2022/04/14 02:57:07;;;;;;;2.90;2.70;;;16.20;99.90;;;;;;5092373;28;20864;-83
2022/04/14 02:59:36;;;;;;;4.50;2.67;;;16.20;99.90;;;;;;5109003;28;20457;-83
2022/04/14 03:02:05;;;;;;;4.97;2.90;;;16.20;99.90;;;;;;5108519;28;20465;-83
2022/04/14 03:04:34;;;;;;;3.67;3.10;;;16.30;99.90;;;;;;5100034;28;20472;-85
2022/04/14 03:07:04;;;;;;;4.57;3.10;;;16.30;99.90;;;;;;5109571;28;20796;-83
2022/04/14 03:09:32;;;;;;;3.10;2.90;;;16.40;99.90;;;;;;5108243;28;20464;-83
2022/04/14 03:12:00;;;;;;;6.00;3.83;;;16.40;99.90;;;;;;5109553;28;20452;-83
2022/04/14 03:14:28;;;;;;;5.60;3.63;;;16.50;99.90;;;;;;5108447;28;20479;-83
2022/04/14 03:16:57;;;;;;;3.90;3.10;;;16.50;99.90;;;;;;5109141;28;20479;-84
2022/04/14 03:19:26;;;;;;;5.90;3.40;;;16.50;99.90;;;;;;5102519;28;20553;-83
2022/04/14 03:21:54;;;;;;;3.90;3.27;;;16.40;99.90;;;;;;5105942;28;20441;-83
2022/04/14 03:24:23;;;;;;;3.50;3.20;;;16.40;99.90;;;;;;5104388;28;20484;-83
2022/04/14 03:26:52;;;;;;;3.80;3.50;;;16.30;99.90;;;;;;5110430;28;20473;-82
2022/04/14 03:29:20;;;;;;;5.40;3.13;;;16.20;99.90;;;;;;5107162;28;20460;-84
2022/04/14 03:31:48;;;;;;;4.40;4.00;;;16.20;99.90;;;;;;5110595;28;20952;-84
2022/04/14 03:34:16;;;;;;;3.90;3.37;;;16.20;99.90;;;;;;5107121;28;20460;-83
2022/04/14 03:36:45;;;;;;;3.50;3.10;;;16.20;99.90;;;;;;5106782;28;20481;-83
2022/04/14 03:39:13;;;;;;;3.53;3.23;;;16.20;99.90;;;;;;5112843;28;20456;-82
2022/04/14 03:41:42;;;;;;;8.07;4.20;;;16.20;99.90;;;;;;5108159;28;21023;-83
2022/04/14 03:44:11;;;;;;;9.63;4.60;;;16.20;99.90;;;;;;5118137;27;20515;-81
2022/04/14 03:46:39;;;;;;;9.00;4.70;;;16.20;99.90;;;;;;5112976;28;20446;-83
2022/04/14 03:49:08;;;;;;;5.20;3.97;;;16.20;99.90;;;;;;5106834;27;20437;-83
2022/04/14 03:51:36;;;;;;;4.20;3.87;;;16.20;99.90;;;;;;5105220;28;20937;-83
2022/04/14 03:54:04;;;;;;;10.87;4.40;;;16.10;99.90;;;;;;5111438;27;20902;-82
2022/04/14 03:56:32;;;;;;;7.50;4.73;;;16.00;99.90;;;;;;5105906;28;20975;-82
2022/04/14 03:59:02;;;;;;;4.70;4.20;;;16.20;99.90;;;;;;5108443;27;20453;-84
2022/04/14 04:01:30;;;;;;;7.80;7.00;;;16.10;99.90;;;;;;5102154;28;20493;-81
2022/04/14 04:03:58;;;;;;;8.57;7.53;;;16.10;99.90;;;;;;5110360;28;20472;-81
2022/04/14 04:06:26;;;;;;;7.30;5.87;;;16.20;99.90;;;;;;5109335;28;20447;-81
2022/04/14 04:08:54;;;;;;;7.43;6.10;;;16.20;99.90;;;;;;5110795;28;20532;-82
2022/04/14 04:11:22;;;;;;;10.63;6.50;;;16.30;99.90;;;;;;5101842;27;20450;-81
2022/04/14 04:13:51;;;;;;;7.60;6.40;;;16.30;99.90;;;;;;5112384;27;20449;-82
2022/04/14 04:16:20;;;;;;;8.10;6.47;;;16.30;99.90;;;;;;5102297;28;20482;-82
2022/04/14 04:18:48;;;;;;;12.50;8.13;;;16.20;99.90;;;;;;5108319;27;20449;-81
2022/04/14 04:21:16;;;;;;;11.67;7.63;;;16.20;99.90;;;;;;5110862;28;20449;-84
2022/04/14 04:23:45;;;;;;;12.00;8.37;;;16.30;99.90;;;;;;5107201;28;20457;-82
2022/04/14 04:26:13;;;;;;;8.30;7.33;;;16.30;99.90;;;;;;5109993;27;20504;-81
2022/04/14 04:28:41;;;;;;;14.20;9.20;;;16.30;99.90;;;;;;5110015;28;20445;-82
2022/04/14 04:31:12;;;;;;;12.33;7.77;;;16.30;99.90;;;;;;5110179;27;20455;-82
2022/04/14 04:33:42;;;;;;;10.63;8.30;;;16.30;99.90;;;;;;5106362;28;20532;-82
2022/04/14 04:36:11;;;;;;;10.63;8.60;;;16.20;99.90;;;;;;5109341;27;20466;-82
2022/04/14 04:38:39;;;;;;;14.87;9.40;;;16.10;99.90;;;;;;5112944;27;20451;-81
2022/04/14 04:41:07;;;;;;;14.73;9.37;;;16.10;99.90;;;;;;5098525;28;20836;-81
2022/04/14 04:43:35;;;;;;;13.23;9.83;;;16.20;99.90;;;;;;5116028;27;20472;-82
2022/04/14 04:46:04;;;;;;;15.03;9.07;;;16.20;99.90;;;;;;5087880;28;20446;-80
2022/04/14 04:48:32;;;;;;;15.20;10.40;;;16.20;99.90;;;;;;5101733;28;20465;-79
2022/04/14 04:51:02;;;;;;;16.37;11.17;;;16.30;99.90;;;;;;5090877;27;20462;-81
2022/04/14 04:53:30;;;;;;;20.20;11.87;;;16.30;99.90;;;;;;5109797;28;20947;-82
2022/04/14 04:55:58;;;;;;;15.83;11.03;;;16.30;99.90;;;;;;5112101;28;20666;-82
2022/04/14 04:58:26;;;;;;;20.67;12.97;;;16.40;99.90;;;;;;5107103;28;20445;-83
2022/04/14 05:00:55;;;;;;;17.80;11.53;;;16.40;99.90;;;;;;5114424;27;20509;-81
2022/04/14 05:03:24;;;;;;;21.53;12.80;;;16.30;99.90;;;;;;5091070;28;20451;-81
2022/04/14 05:05:52;;;;;;;19.43;12.40;;;16.30;99.90;;;;;;5110796;27;20487;-82
2022/04/14 05:08:22;;;;;;;18.57;12.90;;;16.30;99.90;;;;;;5112803;28;20450;-80
2022/04/14 05:10:50;;;;;;;14.80;11.43;;;16.30;99.90;;;;;;5108674;28;20460;-83
2022/04/14 05:13:18;;;;;;;19.37;12.13;;;16.20;99.90;;;;;;5113764;27;20438;-81
2022/04/14 05:15:46;;;;;;;17.17;12.07;;;16.20;99.90;;;;;;5108871;27;20469;-82
2022/04/14 05:18:15;;;;;;;17.47;12.40;;;16.20;99.90;;;;;;5112940;28;20463;-79
2022/04/14 05:20:43;;;;;;;20.83;13.60;;;16.30;99.90;;;;;;5106533;28;20457;-82
2022/04/14 05:23:11;;;;;;;18.00;12.00;;;16.20;99.90;;;;;;5116101;27;20979;-81
2022/04/14 05:25:42;;;;;;;16.77;12.10;;;16.20;99.90;;;;;;5106819;28;20479;-82
2022/04/14 05:28:10;;;;;;;18.27;12.57;;;16.20;99.90;;;;;;5109718;27;20455;-81
2022/04/14 05:30:38;;;;;;;19.13;12.43;;;16.20;99.90;;;;;;5103772;27;20975;-83
2022/04/14 05:33:10;;;;;;;15.27;11.53;;;16.30;99.90;;;;;;5111426;27;20445;-83
2022/04/14 05:35:39;;;;;;;15.10;11.00;;;16.30;99.90;;;;;;5117847;27;20480;-81
2022/04/14 05:38:07;;;;;;;15.10;11.53;;;16.30;99.90;;;;;;5091032;28;20863;-83
2022/04/14 05:40:41;;;;;;;19.20;12.90;;;16.30;99.90;;;;;;5104007;27;20454;-82
2022/04/14 05:43:15;;;;;;;18.80;12.90;;;16.30;99.90;;;;;;5105066;27;20454;-85
2022/04/14 05:45:47;;;;;;;22.50;13.60;;;16.30;99.90;;;;;;5107989;27;20508;-81
2022/04/14 05:48:16;;;;;;;23.13;12.33;;;16.30;99.90;;;;;;5114662;27;20445;-81
2022/04/14 05:50:45;;;;;;;18.63;13.00;;;16.40;99.90;;;;;;5104004;27;20904;-82
2022/04/14 05:53:14;;;;;;;21.77;13.27;;;16.40;99.90;;;;;;5083355;28;20464;-83
2022/04/14 05:55:42;;;;;;;16.50;12.53;;;16.10;99.90;;;;;;5100122;28;20574;-82
2022/04/14 05:58:12;;;;;;;16.30;13.57;;;16.40;99.90;;;;;;5104315;28;21010;-82
2022/04/14 06:00:41;;;;;;;17.60;12.80;;;16.50;99.90;;;;;;5089071;28;20472;-81
2022/04/14 06:03:09;;;;;;;17.87;12.50;;;16.50;99.90;;;;;;5105795;28;20469;-80
2022/04/14 06:05:38;;;;;;;19.60;13.30;;;16.60;99.90;;;;;;5100986;27;20471;-81
2022/04/14 06:08:07;;;;;;;17.67;12.97;;;16.50;99.90;;;;;;5107083;27;21995;-83
2022/04/14 06:10:36;;;;;;;18.90;12.20;;;16.60;99.90;;;;;;5101460;28;20466;-81
2022/04/14 06:13:04;;;;;;;17.73;12.57;;;16.60;99.90;;;;;;5108592;27;20456;-82
2022/04/14 06:15:35;;;;;;;20.97;12.10;;;16.70;99.90;;;;;;5111242;27;20466;-81
2022/04/14 06:18:03;;;;;;;16.60;11.83;;;16.70;99.90;;;;;;5092160;27;20490;-81
2022/04/14 06:20:31;;;;;;;17.67;12.57;;;16.80;99.90;;;;;;5111725;27;20457;-81
2022/04/14 06:22:59;;;;;;;20.63;13.90;;;16.90;99.90;;;;;;5099971;28;20539;-81
2022/04/14 06:25:28;;;;;;;16.23;13.23;;;17.00;99.90;;;;;;5101465;27;20516;-82
2022/04/14 06:27:57;;;;;;;21.80;13.03;;;17.00;99.90;;;;;;5103133;28;21354;-81
2022/04/14 06:30:25;;;;;;;18.77;11.37;;;17.10;99.90;;;;;;5099582;27;20657;-81
2022/04/14 06:32:58;;;;;;;15.20;11.50;;;17.20;99.90;;;;;;5106653;27;21434;-82
2022/04/14 06:35:27;;;;;;;18.10;10.23;;;17.30;99.90;;;;;;5098860;27;21043;-83
2022/04/14 06:37:56;;;;;;;13.63;10.33;;;17.30;99.90;;;;;;5104639;28;20476;-82
2022/04/14 06:40:25;;;;;;;18.00;10.10;;;17.40;99.90;;;;;;5102024;27;20460;-81
2022/04/14 06:43:02;;;;;;;16.03;10.50;;;17.60;99.90;;;;;;5098197;27;20466;-82
2022/04/14 06:45:32;;;;;;;13.40;10.20;;;17.60;99.90;;;;;;5100549;28;20476;-82
2022/04/14 06:48:02;;;;;;;15.27;10.80;;;17.80;99.90;;;;;;5103317;27;20458;-80
2022/04/14 06:50:30;;;;;;;11.93;9.27;;;17.90;99.90;;;;;;5081316;27;20454;-83
2022/04/14 06:52:58;;;;;;;14.07;9.53;;;18.00;99.90;;;;;;5100692;27;21287;-82
2022/04/14 06:55:27;;;;;;;12.93;8.77;;;18.10;99.90;;;;;;5104887;28;20561;-82
2022/04/14 06:57:58;;;;;;;12.43;9.40;;;18.20;99.90;;;;;;5104493;28;21006;-79
2022/04/14 07:00:27;;;;;;;13.07;9.70;;;18.20;99.90;;;;;;5106161;28;20463;-82
2022/04/14 07:02:57;;;;;;;11.53;8.30;;;18.30;99.90;;;;;;5104749;28;21042;-81
2022/04/14 07:05:27;;;;;;;12.57;9.37;;;18.40;99.90;;;;;;5100926;28;20467;-82
2022/04/14 07:07:55;;;;;;;13.40;9.73;;;18.40;99.90;;;;;;5096350;28;20952;-80
2022/04/14 07:10:24;;;;;;;11.40;8.90;;;18.50;99.90;;;;;;5108002;28;20461;-81
2022/04/14 07:12:52;;;;;;;11.70;8.67;;;18.50;99.90;;;;;;5117870;27;20813;-79
2022/04/14 07:15:20;;;;;;;11.80;8.90;;;18.70;99.90;;;;;;5104430;28;20529;-81
2022/04/14 07:17:48;;;;;;;9.97;8.50;;;18.80;99.90;;;;;;5105083;27;20487;-82
2022/04/14 07:20:17;;;;;;;11.37;8.20;;;18.90;99.90;;;;;;5108749;27;20451;-81
2022/04/14 07:22:49;;;;;;;11.80;9.17;;;19.00;99.90;;;;;;5109510;27;20463;-82
2022/04/14 07:25:24;;;;;;;12.40;10.20;;;19.00;99.90;;;;;;5107740;28;20523;-81
2022/04/14 07:27:53;;;;;;;12.20;9.17;;;19.10;99.90;;;;;;5112361;27;20449;-80
2022/04/14 07:30:23;;;;;;;9.10;8.17;;;19.20;99.90;;;;;;5101310;27;20548;-82
2022/04/14 07:32:52;;;;;;;11.00;9.50;;;19.30;99.90;;;;;;5112074;27;20444;-82
2022/04/14 07:35:23;;;;;;;11.00;9.07;;;19.40;99.90;;;;;;5112934;27;20473;-81
2022/04/14 07:37:53;;;;;;;12.80;8.90;;;19.60;99.90;;;;;;5103572;27;21234;-82
2022/04/14 07:40:21;;;;;;;10.07;9.07;;;19.70;99.90;;;;;;5082799;28;20475;-83
2022/04/14 07:42:50;;;;;;;15.90;10.23;;;19.80;99.90;;;;;;5111871;27;20989;-82
2022/04/14 07:45:18;;;;;;;12.20;9.10;;;19.80;99.90;;;;;;5104759;27;20981;-82
2022/04/14 07:47:48;;;;;;;14.20;8.10;;;19.90;99.90;;;;;;5106691;27;20788;-83
2022/04/14 07:50:18;;;;;;;13.43;9.57;;;20.10;99.90;;;;;;5102958;28;20456;-81
2022/04/14 07:52:49;;;;;;;11.27;8.27;;;20.20;99.90;;;;;;5114058;27;20458;-85
2022/04/14 07:55:23;;;;;;;13.40;9.10;;;20.20;99.90;;;;;;5103031;27;20460;-86
2022/04/14 07:57:53;;;;;;;13.57;9.13;;;20.20;99.90;;;;;;5107060;27;20528;-83
2022/04/14 08:00:22;;;;;;;10.63;9.53;;;20.30;99.90;;;;;;5108772;28;20457;-83
2022/04/14 08:02:54;;;;;;;8.10;7.30;;;20.20;99.90;;;;;;5104197;28;20442;-82
2022/04/14 08:05:23;;;;;;;12.13;8.30;;;20.20;99.90;;;;;;5115224;27;20473;-83
2022/04/14 08:07:51;;;;;;;11.53;8.80;;;20.20;99.90;;;;;;5108409;27;20475;-82
2022/04/14 08:10:20;;;;;;;13.45;10.35;;;20.30;99.90;;;;;;5105484;27;20517;-82
2022/04/14 08:12:50;;;;;;;10.37;8.57;;;20.30;99.90;;;;;;5104142;27;20203;-80
2022/04/14 08:15:18;;;;;;;10.33;8.20;;;20.20;99.90;;;;;;5109744;27;20890;-82
2022/04/14 08:17:46;;;;;;;12.77;9.00;;;20.20;99.90;;;;;;5106424;27;20496;-81
2022/04/14 08:20:15;;;;;;;12.30;9.20;;;20.20;99.90;;;;;;5104751;27;21133;-79
2022/04/14 08:22:45;;;;;;;14.80;8.70;;;20.20;99.90;;;;;;5110345;27;20453;-82
2022/04/14 08:25:15;;;;;;;12.47;9.03;;;20.10;99.90;;;;;;5101628;28;20480;-82
2022/04/14 08:27:43;;;;;;;8.80;7.60;;;20.20;99.90;;;;;;5099454;28;20453;-82
2022/04/14 08:30:14;;;;;;;12.07;8.20;;;19.90;99.90;;;;;;5105454;27;20472;-81
2022/04/14 08:32:43;;;;;;;10.27;7.70;;;20.20;99.90;;;;;;5104758;27;20488;-81
2022/04/14 08:35:12;;;;;;;11.40;8.77;;;20.20;99.90;;;;;;5104156;27;20587;-81
2022/04/14 08:37:41;;;;;;;10.43;8.70;;;20.30;99.90;;;;;;5105796;28;20528;-79
2022/04/14 08:40:11;;;;;;;13.53;9.60;;;20.30;99.90;;;;;;5099304;27;20456;-83
2022/04/14 08:42:42;;;;;;;12.43;9.10;;;20.30;99.90;;;;;;5107153;27;20461;-82
2022/04/14 08:45:14;;;;;;;12.57;9.70;;;20.30;99.90;;;;;;5098554;27;21030;-82
2022/04/14 08:47:43;;;;;;;10.70;8.23;;;20.30;99.90;;;;;;5107119;27;20795;-84
2022/04/14 08:50:13;;;;;;;10.47;8.30;;;20.40;99.90;;;;;;5107719;27;20449;-82
2022/04/14 08:52:41;;;;;;;9.83;7.57;;;20.40;99.90;;;;;;5110358;27;20437;-83
2022/04/14 08:55:11;;;;;;;9.30;6.50;;;20.40;99.90;;;;;;5098101;27;20473;-80
2022/04/14 08:57:41;;;;;;;14.17;7.13;;;20.40;99.90;;;;;;5106450;27;20453;-82
2022/04/14 09:00:11;;;;;;;10.83;8.43;;;20.50;99.90;;;;;;5102945;27;20472;-82
2022/04/14 09:02:44;;;;;;;11.23;6.90;;;20.50;99.90;;;;;;5107553;27;20956;-82
2022/04/14 09:05:13;;;;;;;9.27;7.73;;;20.60;99.90;;;;;;5098736;27;20476;-81
2022/04/14 09:07:41;;;;;;;10.60;8.20;;;20.70;99.90;;;;;;5088107;27;20456;-83
2022/04/14 09:10:10;;;;;;;9.93;7.60;;;20.70;99.90;;;;;;5114028;27;22575;-82
2022/04/14 09:12:38;;;;;;;9.23;6.53;;;20.70;99.90;;;;;;5106913;27;20888;-82
2022/04/14 09:15:08;;;;;;;9.10;7.20;;;20.70;99.90;;;;;;5106059;27;20464;-83
2022/04/14 09:17:36;;;;;;;9.20;8.30;;;20.70;99.90;;;;;;5104693;28;20472;-82
2022/04/14 09:20:31;;;;;;;8.37;7.00;;;20.70;99.90;;;;;;5106275;27;20469;-83
2022/04/14 09:23:20;;;;;;;10.43;7.07;;;20.80;99.90;;;;;;5106513;28;20483;-81
2022/04/14 09:25:51;;;;;;;9.03;6.83;;;20.80;99.90;;;;;;5107547;28;20476;-84
2022/04/14 09:28:20;;;;;;;8.23;5.93;;;20.90;99.90;;;;;;5111738;27;21274;-85
2022/04/14 09:31:02;;;;;;;11.10;7.63;;;21.00;99.90;;;;;;5106456;27;20642;-83
2022/04/14 09:33:32;;;;;;;6.70;6.07;;;21.00;99.90;;;;;;5109926;27;20455;-85
2022/04/14 09:36:13;;;;;;;8.83;6.73;;;21.10;99.90;;;;;;5108346;28;20445;-84
2022/04/14 09:38:52;;;;;;;8.70;6.40;;;21.20;99.90;;;;;;5101649;28;21158;-83
2022/04/14 09:41:31;;;;;;;9.00;6.60;;;21.30;99.90;;;;;;5114823;27;20943;-85
2022/04/14 09:44:01;;;;;;;7.23;6.30;;;21.30;99.90;;;;;;5109806;27;20476;-83
2022/04/14 09:46:30;;;;;;;7.20;6.00;;;21.30;99.90;;;;;;5116449;27;20460;-84
2022/04/14 09:49:08;;;;;;;7.23;6.23;;;21.40;99.90;;;;;;5112259;27;20451;-81
2022/04/14 09:51:39;;;;;;;13.17;6.83;;;21.40;99.90;;;;;;5107535;27;20450;-85
2022/04/14 09:54:13;;;;;;;8.67;5.57;;;21.40;99.90;;;;;;5104756;28;20479;-84
2022/04/14 09:56:47;;;;;;;8.33;6.00;;;21.40;99.90;;;;;;5110424;28;20459;-84
2022/04/14 09:59:17;;;;;;;8.30;5.97;;;21.50;99.90;;;;;;5104641;28;20976;-84
2022/04/14 10:01:48;;;;;;;7.73;5.53;;;21.60;99.90;;;;;;5109656;27;20460;-85
2022/04/14 10:04:30;;;;;;;6.70;4.50;;;21.60;99.90;;;;;;5087828;27;20482;-83
2022/04/14 10:07:11;;;;;;;6.93;6.10;;;21.70;99.90;;;;;;5109499;28;20962;-84
2022/04/14 10:09:41;;;;;;;5.43;4.90;;;21.70;99.90;;;;;;5109064;27;20510;-85
2022/04/14 10:12:29;;;;;;;5.90;5.27;;;21.70;99.90;;;;;;5097998;27;20838;-85
2022/04/14 10:15:09;;;;;;;6.60;4.70;;;21.70;99.90;;;;;;5094920;28;20481;-84
2022/04/14 10:17:39;;;;;;;5.83;5.23;;;21.80;99.90;;;;;;5098205;28;20454;-84
2022/04/14 10:20:12;;;;;;;6.90;5.50;;;21.80;99.90;;;;;;5107618;27;20475;-84
2022/04/14 10:22:42;;;;;;;6.40;5.67;;;21.80;99.90;;;;;;5093662;28;20446;-85
2022/04/14 10:25:12;;;;;;;6.60;4.87;;;21.80;99.90;;;;;;5090419;28;20484;-85
2022/04/14 10:27:41;;;;;;;9.17;6.00;;;21.80;99.90;;;;;;5107366;28;20962;-84
2022/04/14 10:30:09;;;;;;;7.40;6.20;;;21.80;99.90;;;;;;5107839;28;20444;-85
2022/04/14 10:32:38;;;;;;;6.70;6.10;;;21.80;99.90;;;;;;5103439;28;20463;-83
2022/04/14 10:35:08;;;;;;;10.37;5.87;;;21.90;99.90;;;;;;5108171;28;20475;-84
2022/04/14 10:37:42;;;;;;;11.10;6.27;;;21.90;99.90;;;;;;5109269;28;21337;-84
2022/04/14 10:40:13;;;;;;;7.90;4.80;;;22.00;99.90;;;;;;5105937;28;20473;-85
2022/04/14 10:43:02;;;;;;;7.07;5.00;;;22.10;99.90;;;;;;5106362;28;20465;-84
2022/04/14 10:45:32;;;;;;;9.00;5.70;;;22.10;99.90;;;;;;5106336;28;20826;-84
2022/04/14 10:48:01;;;;;;;5.37;4.87;;;22.10;99.90;;;;;;5088505;28;20464;-84
2022/04/14 10:50:31;;;;;;;5.20;4.17;;;22.10;99.90;;;;;;5102127;28;20456;-84
2022/04/14 10:53:05;;;;;;;5.33;4.83;;;22.20;99.90;;;;;;5107707;28;20463;-82
2022/04/14 10:55:41;;;;;;;5.80;4.23;;;22.20;99.90;;;;;;5085555;28;20484;-85
2022/04/14 10:58:47;;;;;;;7.07;4.83;;;22.30;99.90;;;;;;5117737;27;20447;-83
2022/04/14 11:01:16;;;;;;;6.80;4.33;;;22.30;99.90;;;;;;5102383;27;20880;-84
2022/04/14 11:03:48;;;;;;;6.03;4.27;;;22.30;99.90;;;;;;5109028;28;20468;-85
2022/04/14 11:06:51;;;;;;;8.20;4.97;;;22.30;99.90;;;;;;5110475;28;20482;-84
2022/04/14 11:09:49;;;;;;;5.87;3.93;;;22.40;99.90;;;;;;5106180;28;20441;-83
2022/04/14 11:12:20;;;;;;;5.43;4.50;;;22.40;99.90;;;;;;5107949;28;20443;-85
2022/04/14 11:14:54;;;;;;;7.40;4.67;;;22.40;99.90;;;;;;5109433;28;20460;-84
2022/04/14 11:17:52;;;;;;;7.53;5.03;;;22.40;99.90;;;;;;5108385;28;20448;-84
2022/04/14 11:20:54;;;;;;;5.73;4.83;;;22.40;99.90;;;;;;5102443;28;20511;-84
2022/04/14 11:23:28;;;;;;;5.37;4.77;;;22.40;99.90;;;;;;5111145;28;20551;-84
2022/04/14 11:26:09;;;;;;;5.93;4.80;;;22.40;99.90;;;;;;5089572;28;20930;-85
2022/04/14 11:28:40;;;;;;;4.67;4.27;;;22.50;99.90;;;;;;5102573;28;20453;-84
2022/04/14 11:31:25;;;;;;;7.50;4.87;;;22.50;99.90;;;;;;5109664;28;20822;-84
2022/04/14 11:33:57;;;;;;;8.07;5.60;;;22.60;99.90;;;;;;5108876;28;20448;-82
2022/04/14 11:36:40;;;;;;;6.13;5.40;;;22.60;99.90;;;;;;5107536;28;20504;-83
2022/04/14 11:39:09;;;;;;;5.00;4.60;;;22.60;99.90;;;;;;5084527;28;20455;-85
2022/04/14 11:41:42;;;;;;;10.00;5.20;;;22.60;99.90;;;;;;5114819;28;20940;-85
2022/04/14 11:44:14;;;;;;;8.83;6.50;;;22.60;99.90;;;;;;5110299;28;20538;-83
2022/04/14 11:46:44;;;;;;;5.40;4.80;;;22.60;99.90;;;;;;5109278;28;20997;-84
2022/04/14 11:49:14;;;;;;;8.20;5.27;;;22.70;99.90;;;;;;5091297;28;20467;-85
2022/04/14 11:51:48;;;;;;;7.03;4.63;;;22.70;99.90;;;;;;5102730;28;20444;-85
2022/04/14 11:54:33;;;;;;;6.77;5.07;;;22.70;99.90;;;;;;5106469;28;20528;-84
2022/04/14 11:57:09;;;;;;;5.43;4.93;;;22.80;99.90;;;;;;5112925;28;20971;-85
2022/04/14 11:59:41;;;;;;;5.40;4.53;;;22.80;99.90;;;;;;5104660;27;20444;-84
2022/04/14 12:02:12;;;;;;;6.27;4.20;;;22.80;99.90;;;;;;5111250;28;20805;-85
2022/04/14 12:04:43;;;;;;;7.27;4.20;;;22.80;99.90;;;;;;5111827;27;21027;-84
2022/04/14 12:07:12;;;;;;;5.43;4.10;;;22.90;99.90;;;;;;5113806;27;20468;-84
2022/04/14 12:09:42;;;;;;;5.40;4.30;;;22.90;99.90;;;;;;5116540;27;20474;-84
2022/04/14 12:12:14;;;;;;;2.67;2.30;;;22.90;99.90;;;;;;5110011;28;20997;-82
2022/04/14 12:14:47;;;;;;;7.53;5.50;;;23.00;99.90;;;;;;5114371;27;20477;-84
2022/04/14 12:17:16;;;;;;;7.70;4.90;;;22.90;99.90;;;;;;5111116;27;20490;-84
2022/04/14 12:19:46;;;;;;;7.20;4.63;;;22.90;99.90;;;;;;5097197;28;20462;-84
2022/04/14 12:22:15;;;;;;;4.83;4.43;;;23.00;99.90;;;;;;5113063;27;20450;-85
2022/04/14 12:24:51;;;;;;;6.30;5.30;;;23.00;99.90;;;;;;5111638;28;20529;-85
2022/04/14 12:27:23;;;;;;;6.93;5.37;;;23.10;99.90;;;;;;5112441;27;20460;-85
2022/04/14 12:29:54;;;;;;;6.10;5.40;;;23.10;99.90;;;;;;5096111;28;20456;-86
2022/04/14 12:32:27;;;;;;;8.20;4.60;;;23.10;99.90;;;;;;5109166;28;20564;-84
2022/04/14 12:34:57;;;;;;;5.47;3.90;;;23.10;99.90;;;;;;5110451;28;20487;-85
2022/04/14 12:37:34;;;;;;;6.47;5.40;;;23.20;99.90;;;;;;5108097;28;20449;-84
2022/04/14 12:40:11;;;;;;;5.20;4.77;;;23.20;99.90;;;;;;5113879;27;20468;-84
2022/04/14 12:42:40;;;;;;;5.07;4.67;;;23.20;99.90;;;;;;5115930;27;20452;-85
2022/04/14 12:45:12;;;;;;;7.80;4.87;;;23.20;99.90;;;;;;5114523;27;20465;-85
2022/04/14 12:47:42;;;;;;;7.63;6.30;;;23.30;99.90;;;;;;5117173;27;20455;-86
2022/04/14 12:50:11;;;;;;;7.23;5.13;;;23.20;99.90;;;;;;5112225;27;20637;-85
2022/04/14 12:52:40;;;;;;;8.60;5.80;;;23.20;99.90;;;;;;5098180;27;20538;-84
2022/04/14 12:55:09;;;;;;;7.60;6.33;;;23.20;99.90;;;;;;5096910;27;20854;-85
2022/04/14 12:57:38;;;;;;;8.03;6.70;;;23.20;99.90;;;;;;5093165;28;20467;-85